Time;durP1;ratioP1;P1;durP2;ratioP2;P2;SDS_P1;SDS_P2;PMS_P1;PMS_P2;Temp;Humidity;BMP_temperature;BMP_pressure;BME280_temperature;BME280_humidity;BME280_pressure;Samples;Min_cycle;Max_cycle;Signal;HPM_P1;HPM_P2
2023/07/28 02:02:09;;;;;;;2.17;1.98;;;;;;;;;;4392418;28;20103;-75
2023/07/28 02:04:36;;;;;;;4.65;2.85;;;;;;;;;;4251468;33;20183;-75
2023/07/28 02:07:01;;;;;;;2.60;2.30;;;;;;;;;;4252878;33;20038;-75
2023/07/28 02:09:28;;;;;;;10.07;2.42;;;;;;;;;;4251071;33;20042;-75
2023/07/28 02:11:54;;;;;;;10.05;2.62;;;;;;;;;;4250955;33;20433;-75
2023/07/28 02:14:20;;;;;;;5.70;2.95;;;;;;;;;;4251275;33;20045;-76
2023/07/28 02:16:46;;;;;;;6.05;2.80;;;;;;;;;;4251603;33;20050;-75
2023/07/28 02:19:13;;;;;;;3.37;2.75;;;;;;;;;;4252625;33;20091;-76
2023/07/28 02:21:39;;;;;;;4.05;2.80;;;;;;;;;;4251032;33;20089;-76
2023/07/28 02:24:05;;;;;;;4.10;2.90;;;;;;;;;;4222197;34;20133;-76
2023/07/28 02:26:31;;;;;;;3.05;2.67;;;;;;;;;;4237016;33;20054;-75
2023/07/28 02:28:57;;;;;;;4.12;2.72;;;;;;;;;;4222930;34;20081;-77
2023/07/28 02:31:23;;;;;;;3.92;2.70;;;;;;;;;;4222738;34;20060;-77
2023/07/28 02:33:50;;;;;;;11.85;2.67;;;;;;;;;;4220896;34;20064;-77
2023/07/28 02:36:16;;;;;;;6.65;2.97;;;;;;;;;;4213720;34;20051;-77
2023/07/28 02:38:42;;;;;;;5.55;2.72;;;;;;;;;;4210036;34;20039;-76
2023/07/28 02:41:08;;;;;;;4.78;3.28;;;;;;;;;;4210239;34;20496;-77
2023/07/28 02:43:35;;;;;;;3.15;2.45;;;;;;;;;;4209772;34;20458;-76
2023/07/28 02:46:01;;;;;;;3.95;2.80;;;;;;;;;;4208525;34;20047;-77
2023/07/28 02:48:28;;;;;;;9.00;2.42;;;;;;;;;;4209716;34;20399;-76
2023/07/28 02:50:54;;;;;;;4.50;2.78;;;;;;;;;;4194337;34;20081;-76
2023/07/28 02:53:20;;;;;;;5.37;2.50;;;;;;;;;;4195301;34;20060;-76
2023/07/28 02:55:47;;;;;;;5.75;3.12;;;;;;;;;;4193522;34;20154;-76
2023/07/28 02:58:13;;;;;;;3.25;2.80;;;;;;;;;;4195879;34;20556;-77
2023/07/28 03:00:40;;;;;;;11.15;2.97;;;;;;;;;;4193957;34;20112;-75
2023/07/28 03:03:08;;;;;;;5.40;2.62;;;;;;;;;;4199878;34;20249;-74
2023/07/28 03:05:34;;;;;;;8.93;3.53;;;;;;;;;;4182717;34;20070;-74
2023/07/28 03:08:02;;;;;;;6.53;2.67;;;;;;;;;;4169070;34;20036;-77
2023/07/28 03:10:28;;;;;;;4.55;2.75;;;;;;;;;;4171073;34;20352;-78
2023/07/28 03:12:55;;;;;;;4.47;3.55;;;;;;;;;;4173486;34;20063;-75
2023/07/28 03:15:24;;;;;;;3.83;2.90;;;;;;;;;;4168957;34;20106;-76
2023/07/28 03:17:50;;;;;;;3.65;2.55;;;;;;;;;;4166897;34;20078;-76
2023/07/28 03:20:16;;;;;;;3.30;2.35;;;;;;;;;;4166222;34;20587;-77
2023/07/28 03:22:43;;;;;;;5.37;2.90;;;;;;;;;;4169341;34;20062;-76
2023/07/28 03:25:09;;;;;;;4.97;2.62;;;;;;;;;;4167501;34;20156;-77
2023/07/28 03:27:35;;;;;;;9.35;2.62;;;;;;;;;;4169763;34;20191;-76
2023/07/28 03:30:02;;;;;;;9.38;2.70;;;;;;;;;;4181469;34;20214;-76
2023/07/28 03:32:28;;;;;;;4.28;2.62;;;;;;;;;;4177879;34;20055;-77
2023/07/28 03:34:54;;;;;;;9.75;3.12;;;;;;;;;;4181488;34;20109;-75
2023/07/28 03:37:21;;;;;;;6.40;2.92;;;;;;;;;;4184850;34;20069;-76
2023/07/28 03:39:48;;;;;;;2.37;2.12;;;;;;;;;;4224843;33;20431;-77
2023/07/28 03:42:15;;;;;;;3.47;2.33;;;;;;;;;;4235754;33;20053;-79
2023/07/28 03:44:41;;;;;;;2.85;2.33;;;;;;;;;;4233772;33;20081;-77
2023/07/28 03:47:08;;;;;;;5.70;3.05;;;;;;;;;;4237163;33;20072;-76
2023/07/28 03:49:34;;;;;;;6.05;2.60;;;;;;;;;;4207199;34;20027;-76
2023/07/28 03:52:01;;;;;;;3.10;2.22;;;;;;;;;;4208877;34;20051;-77
2023/07/28 03:54:27;;;;;;;3.05;2.05;;;;;;;;;;4208035;34;20047;-77
2023/07/28 03:56:53;;;;;;;2.55;2.35;;;;;;;;;;4207031;34;20082;-77
2023/07/28 03:59:20;;;;;;;3.72;2.17;;;;;;;;;;4209084;34;20039;-77
2023/07/28 04:01:46;;;;;;;2.87;2.53;;;;;;;;;;4210179;34;20468;-76
2023/07/28 04:04:12;;;;;;;1.90;1.80;;;;;;;;;;4221528;34;20058;-78
2023/07/28 04:06:41;;;;;;;4.40;2.75;;;;;;;;;;4220872;34;20082;-77
2023/07/28 04:09:08;;;;;;;2.70;2.40;;;;;;;;;;4235007;33;21006;-76
2023/07/28 04:11:34;;;;;;;2.00;1.83;;;;;;;;;;4236830;33;20046;-77
2023/07/28 04:14:00;;;;;;;4.18;2.95;;;;;;;;;;4235762;33;20055;-77
2023/07/28 04:16:26;;;;;;;4.53;2.20;;;;;;;;;;4236308;33;20190;-77
2023/07/28 04:18:53;;;;;;;8.05;2.15;;;;;;;;;;4234528;33;20393;-78
2023/07/28 04:21:19;;;;;;;2.33;1.83;;;;;;;;;;4247628;33;21089;-77
2023/07/28 04:23:45;;;;;;;5.15;2.03;;;;;;;;;;4235284;33;20215;-78
2023/07/28 04:26:12;;;;;;;2.28;2.17;;;;;;;;;;4234466;33;20047;-78
2023/07/28 04:28:38;;;;;;;5.95;2.33;;;;;;;;;;4236126;33;20477;-78
2023/07/28 04:31:04;;;;;;;2.20;2.10;;;;;;;;;;4235833;33;20054;-77
2023/07/28 04:33:33;;;;;;;9.57;2.30;;;;;;;;;;4235604;33;20061;-77
2023/07/28 04:36:03;;;;;;;5.95;2.58;;;;;;;;;;4235992;33;20177;-77
2023/07/28 04:38:29;;;;;;;3.80;2.97;;;;;;;;;;4234933;33;20069;-76
2023/07/28 04:40:58;;;;;;;4.00;3.00;;;;;;;;;;4223301;33;20054;-77
2023/07/28 04:43:24;;;;;;;4.37;2.85;;;;;;;;;;4220407;34;20781;-77
2023/07/28 04:45:51;;;;;;;7.05;2.95;;;;;;;;;;4222233;34;20557;-77
2023/07/28 04:48:18;;;;;;;8.50;3.10;;;;;;;;;;4222229;34;20055;-78
2023/07/28 04:50:44;;;;;;;3.47;2.72;;;;;;;;;;4222770;33;20076;-77
2023/07/28 04:53:13;;;;;;;5.75;3.28;;;;;;;;;;4225047;33;20079;-77
2023/07/28 04:55:41;;;;;;;3.55;2.90;;;;;;;;;;4244724;33;20099;-77
2023/07/28 04:58:13;;;;;;;7.93;3.67;;;;;;;;;;4235209;33;20034;-77
2023/07/28 05:00:42;;;;;;;6.47;3.28;;;;;;;;;;4235654;33;20067;-77
2023/07/28 05:03:08;;;;;;;3.70;3.33;;;;;;;;;;4260059;33;20098;-78
2023/07/28 05:05:37;;;;;;;9.52;3.85;;;;;;;;;;4252874;33;20062;-79
2023/07/28 05:08:05;;;;;;;8.05;3.40;;;;;;;;;;4259950;33;20071;-79
2023/07/28 05:10:37;;;;;;;6.50;4.40;;;;;;;;;;4262189;33;20067;-78
2023/07/28 05:13:04;;;;;;;10.32;6.20;;;;;;;;;;4253647;33;20071;-76
2023/07/28 05:15:30;;;;;;;10.38;4.85;;;;;;;;;;4246055;33;20433;-75
2023/07/28 05:17:56;;;;;;;8.73;4.68;;;;;;;;;;4253959;33;20075;-76
2023/07/28 05:20:30;;;;;;;13.27;3.90;;;;;;;;;;4263507;33;20839;-78
2023/07/28 05:22:57;;;;;;;7.43;3.92;;;;;;;;;;4264074;33;20042;-78
2023/07/28 05:25:25;;;;;;;8.93;4.43;;;;;;;;;;4263625;33;20080;-78
2023/07/28 05:27:51;;;;;;;7.37;4.35;;;;;;;;;;4261950;33;20045;-78
2023/07/28 05:30:18;;;;;;;5.53;4.22;;;;;;;;;;4254793;33;20094;-77
2023/07/28 05:32:46;;;;;;;4.57;4.12;;;;;;;;;;4255185;33;20047;-76
2023/07/28 05:35:13;;;;;;;5.37;4.12;;;;;;;;;;4234389;33;20396;-76
2023/07/28 05:37:39;;;;;;;4.90;4.40;;;;;;;;;;4228701;33;20492;-76
2023/07/28 05:40:05;;;;;;;4.37;3.55;;;;;;;;;;4224350;34;20055;-78
2023/07/28 05:42:34;;;;;;;7.47;4.60;;;;;;;;;;4236118;33;20182;-75
2023/07/28 05:45:00;;;;;;;4.93;4.28;;;;;;;;;;4251357;33;20054;-75
2023/07/28 05:47:27;;;;;;;5.95;4.68;;;;;;;;;;4245468;33;20060;-77
2023/07/28 05:49:53;;;;;;;13.95;5.30;;;;;;;;;;4239133;33;20144;-77
2023/07/28 05:52:20;;;;;;;6.62;4.35;;;;;;;;;;4238923;33;20086;-79
2023/07/28 05:54:46;;;;;;;5.10;4.12;;;;;;;;;;4238243;33;20062;-78
2023/07/28 05:57:12;;;;;;;10.20;5.57;;;;;;;;;;4236637;33;20061;-78
2023/07/28 05:59:38;;;;;;;7.18;3.97;;;;;;;;;;4238182;33;20107;-78
2023/07/28 06:02:04;;;;;;;8.55;4.75;;;;;;;;;;4257545;33;20066;-77
2023/07/28 06:04:32;;;;;;;6.53;4.57;;;;;;;;;;4262825;33;20076;-77
2023/07/28 06:06:58;;;;;;;6.07;4.07;;;;;;;;;;4257975;33;20041;-77
2023/07/28 06:09:24;;;;;;;7.70;5.15;;;;;;;;;;4264496;33;20383;-77
2023/07/28 06:11:51;;;;;;;10.77;4.75;;;;;;;;;;4265528;33;20046;-78
2023/07/28 06:14:17;;;;;;;5.03;4.35;;;;;;;;;;4266581;33;20112;-78
2023/07/28 06:16:43;;;;;;;5.97;3.75;;;;;;;;;;4252294;33;20029;-77
2023/07/28 06:19:09;;;;;;;8.02;4.00;;;;;;;;;;4251919;33;20093;-77
2023/07/28 06:21:36;;;;;;;7.43;5.00;;;;;;;;;;4252069;33;20135;-78
2023/07/28 06:24:02;;;;;;;9.38;4.53;;;;;;;;;;4255273;33;20106;-77
2023/07/28 06:26:28;;;;;;;5.00;3.90;;;;;;;;;;4250584;33;20100;-77
2023/07/28 06:28:55;;;;;;;7.87;3.83;;;;;;;;;;4250508;33;20087;-77
2023/07/28 06:31:20;;;;;;;6.90;4.82;;;;;;;;;;4249039;33;20035;-77
2023/07/28 06:33:47;;;;;;;7.00;4.57;;;;;;;;;;4221052;33;20065;-75
2023/07/28 06:36:13;;;;;;;16.00;3.90;;;;;;;;;;4211708;34;20180;-76
2023/07/28 06:38:39;;;;;;;6.87;3.83;;;;;;;;;;4194801;34;20051;-76
2023/07/28 06:41:06;;;;;;;7.03;3.80;;;;;;;;;;4193430;34;20101;-76
2023/07/28 06:43:32;;;;;;;6.45;3.83;;;;;;;;;;4195557;34;20078;-76
2023/07/28 06:46:00;;;;;;;6.22;3.90;;;;;;;;;;4193494;34;20609;-76
2023/07/28 06:48:27;;;;;;;4.97;4.03;;;;;;;;;;4205746;34;20059;-77
2023/07/28 06:50:53;;;;;;;4.05;3.58;;;;;;;;;;4208206;34;20076;-77
2023/07/28 06:53:21;;;;;;;6.80;3.40;;;;;;;;;;4208129;34;20051;-75
2023/07/28 06:55:47;;;;;;;6.65;4.00;;;;;;;;;;4205609;34;20055;-77
2023/07/28 06:58:13;;;;;;;9.15;4.32;;;;;;;;;;4193772;34;20427;-77
2023/07/28 07:00:39;;;;;;;3.70;3.30;;;;;;;;;;4193491;34;20116;-78
2023/07/28 07:03:06;;;;;;;5.37;3.80;;;;;;;;;;4179984;34;20055;-77
2023/07/28 07:05:32;;;;;;;6.03;4.20;;;;;;;;;;4179505;34;20561;-75
2023/07/28 07:08:00;;;;;;;6.87;3.72;;;;;;;;;;4179139;34;20090;-75
2023/07/28 07:10:27;;;;;;;5.60;3.85;;;;;;;;;;4211834;33;20097;-76
2023/07/28 07:12:53;;;;;;;4.37;3.80;;;;;;;;;;4210609;34;20382;-77
2023/07/28 07:15:19;;;;;;;10.98;3.78;;;;;;;;;;4209427;34;20073;-76
2023/07/28 07:17:46;;;;;;;7.18;3.28;;;;;;;;;;4200016;34;20068;-77
2023/07/28 07:20:12;;;;;;;5.82;4.68;;;;;;;;;;4198638;34;20047;-76
2023/07/28 07:22:38;;;;;;;4.43;3.00;;;;;;;;;;4195963;34;20091;-76
2023/07/28 07:25:05;;;;;;;6.00;3.78;;;;;;;;;;4189407;34;20920;-78
2023/07/28 07:27:31;;;;;;;3.90;3.50;;;;;;;;;;4189146;34;20054;-76
2023/07/28 07:29:57;;;;;;;4.37;3.28;;;;;;;;;;4193789;34;20047;-76
2023/07/28 07:32:24;;;;;;;4.45;3.17;;;;;;;;;;4215076;34;20069;-78
2023/07/28 07:34:50;;;;;;;3.12;2.80;;;;;;;;;;4207879;34;20050;-76
2023/07/28 07:37:16;;;;;;;9.93;3.65;;;;;;;;;;4245257;33;20474;-75
2023/07/28 07:39:43;;;;;;;6.18;3.40;;;;;;;;;;4250568;33;20039;-78
2023/07/28 07:42:11;;;;;;;5.80;3.17;;;;;;;;;;4250620;33;20035;-77
2023/07/28 07:44:37;;;;;;;5.95;3.53;;;;;;;;;;4248717;33;20067;-78
2023/07/28 07:47:11;;;;;;;4.97;3.72;;;;;;;;;;4244227;33;20111;-77
2023/07/28 07:49:37;;;;;;;4.28;3.03;;;;;;;;;;4242531;33;20522;-77
2023/07/28 07:52:05;;;;;;;3.65;2.78;;;;;;;;;;4237211;33;20076;-78
2023/07/28 07:54:31;;;;;;;6.85;3.00;;;;;;;;;;4204046;34;20035;-77
2023/07/28 07:56:57;;;;;;;3.75;3.40;;;;;;;;;;4202392;34;20063;-76
2023/07/28 07:59:27;;;;;;;12.55;3.62;;;;;;;;;;4180282;34;20413;-78
2023/07/28 08:01:54;;;;;;;7.47;2.78;;;;;;;;;;4175343;34;20085;-77
2023/07/28 08:04:20;;;;;;;3.53;2.67;;;;;;;;;;4153334;34;20060;-77
2023/07/28 08:06:46;;;;;;;4.55;2.97;;;;;;;;;;4124015;34;20062;-77
2023/07/28 08:09:12;;;;;;;6.10;3.83;;;;;;;;;;4101217;34;20096;-76
2023/07/28 08:11:39;;;;;;;2.85;2.50;;;;;;;;;;4104427;34;20075;-79
2023/07/28 08:14:05;;;;;;;3.60;2.60;;;;;;;;;;4100924;34;20109;-77
2023/07/28 08:16:31;;;;;;;2.50;2.40;;;;;;;;;;4102991;34;20497;-77
2023/07/28 08:18:58;;;;;;;2.87;2.47;;;;;;;;;;4088539;34;20064;-77
2023/07/28 08:21:24;;;;;;;3.03;2.72;;;;;;;;;;4086931;35;20831;-77
2023/07/28 08:23:50;;;;;;;2.33;1.90;;;;;;;;;;4106208;34;20061;-78
2023/07/28 08:26:17;;;;;;;1.87;1.73;;;;;;;;;;4127134;34;20172;-77
2023/07/28 08:28:42;;;;;;;3.22;2.40;;;;;;;;;;4130891;34;20033;-79
2023/07/28 08:31:09;;;;;;;4.07;1.85;;;;;;;;;;4114595;34;20472;-78
2023/07/28 08:33:35;;;;;;;2.05;1.75;;;;;;;;;;4099944;34;20079;-79
2023/07/28 08:36:01;;;;;;;2.10;1.92;;;;;;;;;;4145403;34;20483;-77
2023/07/28 08:38:27;;;;;;;6.47;2.20;;;;;;;;;;4167797;34;20451;-78
2023/07/28 08:40:58;;;;;;;13.07;2.28;;;;;;;;;;4191960;34;20073;-78
2023/07/28 08:43:24;;;;;;;3.62;2.72;;;;;;;;;;4207703;34;20027;-80
2023/07/28 08:45:51;;;;;;;6.30;2.20;;;;;;;;;;4207098;34;20065;-77
2023/07/28 08:48:17;;;;;;;4.30;2.00;;;;;;;;;;4207210;34;20048;-79
2023/07/28 08:50:44;;;;;;;5.85;2.20;;;;;;;;;;4205928;34;20059;-79
2023/07/28 08:53:10;;;;;;;14.95;2.58;;;;;;;;;;4201603;34;20031;-79
2023/07/28 08:55:36;;;;;;;3.87;2.12;;;;;;;;;;4214763;33;20058;-81
2023/07/28 08:58:16;;;;;;;4.12;2.30;;;;;;;;;;4220702;33;20438;-81
2023/07/28 09:00:42;;;;;;;3.30;2.05;;;;;;;;;;4218794;33;20059;-80
2023/07/28 09:03:09;;;;;;;2.42;1.95;;;;;;;;;;4218523;33;20170;-82
2023/07/28 09:05:35;;;;;;;3.78;1.80;;;;;;;;;;4245397;33;20054;-83
2023/07/28 09:08:01;;;;;;;5.45;1.80;;;;;;;;;;4248057;33;20084;-83
2023/07/28 09:10:39;;;;;;;14.80;2.30;;;;;;;;;;4216666;34;20073;-82
2023/07/28 09:13:09;;;;;;;6.87;4.75;;;;;;;;;;4218499;33;20084;-84
2023/07/28 09:15:35;;;;;;;13.62;3.10;;;;;;;;;;4231557;33;20524;-84
2023/07/28 09:18:02;;;;;;;6.47;5.72;;;;;;;;;;4218680;34;20035;-83
2023/07/28 09:20:35;;;;;;;12.93;1.95;;;;;;;;;;4217672;34;20094;-86
2023/07/28 09:23:01;;;;;;;8.15;1.45;;;;;;;;;;4213151;34;20098;-83
2023/07/28 09:25:28;;;;;;;1.85;1.75;;;;;;;;;;4215773;34;20459;-85
2023/07/28 09:27:54;;;;;;;9.68;1.50;;;;;;;;;;4219126;34;20083;-83
2023/07/28 09:30:21;;;;;;;2.90;1.40;;;;;;;;;;4219893;34;20077;-85
2023/07/28 09:32:49;;;;;;;5.47;1.45;;;;;;;;;;4222648;34;20053;-83
2023/07/28 09:35:16;;;;;;;7.05;1.50;;;;;;;;;;4225184;34;20059;-84
2023/07/28 09:37:43;;;;;;;6.57;1.60;;;;;;;;;;4220301;34;20046;-86
2023/07/28 09:40:11;;;;;;;4.85;1.65;;;;;;;;;;4223691;34;21203;-83
2023/07/28 09:42:38;;;;;;;3.08;2.65;;;;;;;;;;4234915;33;20150;-82
2023/07/28 09:45:05;;;;;;;2.20;1.45;;;;;;;;;;4232733;34;20086;-86
2023/07/28 09:47:33;;;;;;;1.27;1.27;;;;;;;;;;4234809;33;20114;-82
2023/07/28 09:50:01;;;;;;;1.45;1.35;;;;;;;;;;4235716;33;20198;-83
2023/07/28 09:52:28;;;;;;;1.90;1.80;;;;;;;;;;4233042;33;20432;-85
2023/07/28 09:54:56;;;;;;;8.23;6.32;;;;;;;;;;4233227;33;20064;-80
2023/07/28 09:57:24;;;;;;;1.77;1.67;;;;;;;;;;4247315;33;20075;-86
2023/07/28 09:59:53;;;;;;;1.92;1.77;;;;;;;;;;4251295;33;20079;-84
2023/07/28 10:02:19;;;;;;;2.20;1.83;;;;;;;;;;4262154;33;20112;-83
2023/07/28 10:04:46;;;;;;;2.12;2.03;;;;;;;;;;4262789;33;20069;-81
2023/07/28 10:07:12;;;;;;;2.58;2.37;;;;;;;;;;4261517;33;20053;-84
2023/07/28 10:09:39;;;;;;;2.08;1.98;;;;;;;;;;4272552;33;20350;-84
2023/07/28 10:12:06;;;;;;;2.60;2.40;;;;;;;;;;4266425;33;20075;-83
2023/07/28 10:14:37;;;;;;;3.50;2.50;;;;;;;;;;4268884;33;20066;-81
2023/07/28 10:17:04;;;;;;;2.47;1.67;;;;;;;;;;4269819;33;20075;-81
2023/07/28 10:19:36;;;;;;;2.30;2.10;;;;;;;;;;4271215;33;20292;-82
2023/07/28 10:22:06;;;;;;;2.53;1.87;;;;;;;;;;4268897;33;20099;-79
2023/07/28 10:24:58;;;;;;;1.75;1.65;;;;;;;;;;4271656;33;20061;-82
2023/07/28 10:27:33;;;;;;;4.43;1.30;;;;;;;;;;4264385;33;20067;-81
2023/07/28 10:30:01;;;;;;;2.90;2.55;;;;;;;;;;4263698;33;20071;-80
2023/07/28 10:32:28;;;;;;;1.42;1.33;;;;;;;;;;4247098;33;20136;-83
2023/07/28 10:35:01;;;;;;;2.28;1.48;;;;;;;;;;4244856;33;20429;-80
2023/07/28 10:37:27;;;;;;;2.45;1.58;;;;;;;;;;4231506;33;20051;-83
2023/07/28 10:40:13;;;;;;;1.20;1.20;;;;;;;;;;4228802;33;20194;-83
2023/07/28 10:42:40;;;;;;;1.20;1.12;;;;;;;;;;4228742;33;20128;-82
2023/07/28 10:45:09;;;;;;;2.35;1.75;;;;;;;;;;4230543;33;20102;-82
2023/07/28 10:47:43;;;;;;;1.20;1.20;;;;;;;;;;4231802;33;20109;-80
2023/07/28 10:50:09;;;;;;;0.90;0.90;;;;;;;;;;4221802;34;20116;-78
2023/07/28 10:52:39;;;;;;;1.37;1.20;;;;;;;;;;4223054;33;20138;-79
2023/07/28 10:55:05;;;;;;;1.15;1.15;;;;;;;;;;4228412;33;20027;-80
2023/07/28 10:57:32;;;;;;;0.90;0.90;;;;;;;;;;4230106;33;20063;-81
2023/07/28 11:00:01;;;;;;;3.80;1.25;;;;;;;;;;4238838;33;20064;-83
2023/07/28 11:02:27;;;;;;;1.33;1.25;;;;;;;;;;4397380;28;20120;-80
2023/07/28 11:04:54;;;;;;;1.20;1.20;;;;;;;;;;4253185;33;20128;-81
2023/07/28 11:07:20;;;;;;;1.98;1.25;;;;;;;;;;4250424;33;20058;-79
2023/07/28 11:09:46;;;;;;;1.27;1.27;;;;;;;;;;4221831;34;20026;-83
2023/07/28 11:12:14;;;;;;;1.95;1.23;;;;;;;;;;4221234;34;21677;-79
2023/07/28 11:14:40;;;;;;;1.55;1.35;;;;;;;;;;4219732;34;20130;-81
2023/07/28 11:17:06;;;;;;;1.25;1.25;;;;;;;;;;4221378;34;20047;-83
2023/07/28 11:19:33;;;;;;;1.35;1.20;;;;;;;;;;4216363;33;20059;-81
2023/07/28 11:21:59;;;;;;;1.15;1.15;;;;;;;;;;4218625;34;20090;-83
2023/07/28 11:24:26;;;;;;;1.27;1.20;;;;;;;;;;4219085;33;20054;-79
2023/07/28 11:26:53;;;;;;;2.42;1.10;;;;;;;;;;4218506;33;20063;-81
2023/07/28 11:29:19;;;;;;;4.50;1.48;;;;;;;;;;4208613;34;20039;-82
2023/07/28 11:31:47;;;;;;;1.65;1.55;;;;;;;;;;4180148;34;20107;-83
2023/07/28 11:34:14;;;;;;;3.30;1.80;;;;;;;;;;4175923;34;20599;-82
2023/07/28 11:36:41;;;;;;;1.75;1.75;;;;;;;;;;4178438;34;20106;-83
2023/07/28 11:39:07;;;;;;;1.40;1.40;;;;;;;;;;4177210;34;20081;-78
2023/07/28 11:41:34;;;;;;;1.60;1.50;;;;;;;;;;4169917;34;20047;-81
2023/07/28 11:44:00;;;;;;;6.82;1.60;;;;;;;;;;4186140;34;20048;-82
2023/07/28 11:46:37;;;;;;;2.25;1.80;;;;;;;;;;4192997;34;20039;-80
2023/07/28 11:49:16;;;;;;;1.90;1.80;;;;;;;;;;4194595;34;20102;-80
2023/07/28 11:51:46;;;;;;;1.85;1.75;;;;;;;;;;4193485;34;20098;-82
2023/07/28 11:54:14;;;;;;;2.55;2.42;;;;;;;;;;4202969;34;20048;-81
2023/07/28 11:56:41;;;;;;;2.30;2.17;;;;;;;;;;4228979;33;20055;-82
2023/07/28 11:59:07;;;;;;;2.47;2.28;;;;;;;;;;4225702;33;20484;-79
2023/07/28 12:01:34;;;;;;;2.42;2.33;;;;;;;;;;4232981;33;20096;-80
2023/07/28 12:04:18;;;;;;;1.75;1.62;;;;;;;;;;4245686;33;20072;-81
2023/07/28 12:07:03;;;;;;;2.03;1.92;;;;;;;;;;4242465;33;20194;-80
2023/07/28 12:09:29;;;;;;;2.33;2.22;;;;;;;;;;4231040;33;20072;-80
2023/07/28 12:11:57;;;;;;;4.07;2.72;;;;;;;;;;4232597;33;20055;-82
2023/07/28 12:14:33;;;;;;;2.78;2.60;;;;;;;;;;4233874;33;20054;-81
2023/07/28 12:16:59;;;;;;;3.53;2.42;;;;;;;;;;4251662;33;20111;-80
2023/07/28 12:19:25;;;;;;;4.25;2.15;;;;;;;;;;4262723;33;20057;-79
2023/07/28 12:21:51;;;;;;;4.07;2.60;;;;;;;;;;4260942;33;20053;-79
2023/07/28 12:24:17;;;;;;;1.90;1.80;;;;;;;;;;4259895;33;20917;-79
2023/07/28 12:26:45;;;;;;;2.22;2.12;;;;;;;;;;4261107;33;20073;-79
2023/07/28 12:29:11;;;;;;;2.15;2.05;;;;;;;;;;4248032;33;20498;-79
2023/07/28 12:31:38;;;;;;;5.00;2.03;;;;;;;;;;4245645;33;20050;-80
2023/07/28 12:34:04;;;;;;;2.10;2.00;;;;;;;;;;4248318;33;20355;-79
2023/07/28 12:36:31;;;;;;;2.47;2.30;;;;;;;;;;4228274;33;20068;-79
2023/07/28 12:38:57;;;;;;;3.25;2.12;;;;;;;;;;4232722;33;20046;-80
2023/07/28 12:41:24;;;;;;;2.80;2.67;;;;;;;;;;4236778;33;20042;-78
2023/07/28 12:43:49;;;;;;;4.82;2.97;;;;;;;;;;4216871;34;20445;-80
2023/07/28 12:46:16;;;;;;;2.58;2.47;;;;;;;;;;4219972;34;20067;-81
2023/07/28 12:48:42;;;;;;;3.80;2.50;;;;;;;;;;4219078;34;20050;-80
2023/07/28 12:51:08;;;;;;;5.03;2.62;;;;;;;;;;4207953;34;20090;-83
2023/07/28 12:53:34;;;;;;;59.30;4.82;;;;;;;;;;4207349;34;20031;-84
2023/07/28 12:56:01;;;;;;;39.22;4.57;;;;;;;;;;4207588;34;20051;-85
2023/07/28 12:58:27;;;;;;;15.00;4.25;;;;;;;;;;4205947;34;20444;-85
2023/07/28 13:00:54;;;;;;;11.52;4.00;;;;;;;;;;4208580;34;20063;-87
2023/07/28 13:03:20;;;;;;;13.77;4.43;;;;;;;;;;4208379;34;20047;-85
2023/07/28 13:05:48;;;;;;;5.07;3.28;;;;;;;;;;4208274;34;20055;-88
2023/07/28 13:08:14;;;;;;;3.87;3.17;;;;;;;;;;4229169;33;20050;-86
2023/07/28 13:10:40;;;;;;;3.50;3.30;;;;;;;;;;4222903;33;20046;-86
2023/07/28 13:13:06;;;;;;;5.45;4.20;;;;;;;;;;4215402;34;21059;-87
2023/07/28 13:15:33;;;;;;;4.30;3.60;;;;;;;;;;4231065;33;20055;-84
2023/07/28 13:17:59;;;;;;;3.80;3.50;;;;;;;;;;4244352;33;20140;-87
2023/07/28 13:20:25;;;;;;;3.60;3.40;;;;;;;;;;4239823;33;20784;-87
2023/07/28 13:22:52;;;;;;;3.40;3.20;;;;;;;;;;4235719;33;20117;-86
2023/07/28 13:25:18;;;;;;;3.62;3.33;;;;;;;;;;4236127;33;20072;-85
2023/07/28 13:27:44;;;;;;;3.03;2.83;;;;;;;;;;4236438;33;20043;-86
2023/07/28 13:30:11;;;;;;;3.47;3.28;;;;;;;;;;4236130;33;20181;-85
2023/07/28 13:32:37;;;;;;;4.18;3.15;;;;;;;;;;4236272;33;20105;-86
2023/07/28 13:35:03;;;;;;;3.65;3.35;;;;;;;;;;4234262;33;20043;-85
2023/07/28 13:37:30;;;;;;;3.65;3.20;;;;;;;;;;4241557;33;20081;-85
2023/07/28 13:39:57;;;;;;;3.40;3.20;;;;;;;;;;4240775;33;20110;-86
2023/07/28 13:42:23;;;;;;;3.70;3.40;;;;;;;;;;4248755;33;20047;-84
2023/07/28 13:44:49;;;;;;;3.80;3.50;;;;;;;;;;4257721;33;20125;-86
2023/07/28 13:47:15;;;;;;;3.95;3.00;;;;;;;;;;4236132;33;20402;-86
2023/07/28 13:49:42;;;;;;;3.78;3.45;;;;;;;;;;4243405;33;20137;-87
2023/07/28 13:52:08;;;;;;;3.60;3.30;;;;;;;;;;4238735;33;20066;-87
2023/07/28 13:54:34;;;;;;;3.45;3.25;;;;;;;;;;4260154;33;20102;-90
2023/07/28 13:57:01;;;;;;;3.70;3.12;;;;;;;;;;4259376;33;20085;-87
2023/07/28 13:59:28;;;;;;;4.62;3.47;;;;;;;;;;4258527;33;20390;-84
2023/07/28 14:01:55;;;;;;;4.75;3.33;;;;;;;;;;4225137;34;20903;-86
2023/07/28 14:04:21;;;;;;;3.15;2.95;;;;;;;;;;4223312;34;20027;-83
2023/07/28 14:06:47;;;;;;;17.65;3.55;;;;;;;;;;4218431;34;20114;-83
2023/07/28 14:09:14;;;;;;;6.93;3.95;;;;;;;;;;4213745;34;20050;-85
2023/07/28 14:11:40;;;;;;;4.72;3.45;;;;;;;;;;4208081;34;20086;-83
2023/07/28 14:14:06;;;;;;;7.95;4.47;;;;;;;;;;4210665;34;20048;-84
2023/07/28 14:16:32;;;;;;;8.63;3.90;;;;;;;;;;4210400;34;20031;-84
2023/07/28 14:18:59;;;;;;;5.32;3.60;;;;;;;;;;4211211;34;20505;-85
2023/07/28 14:21:25;;;;;;;3.72;3.42;;;;;;;;;;4209152;34;20035;-87
2023/07/28 14:23:52;;;;;;;4.22;3.92;;;;;;;;;;4198126;34;20118;-87
2023/07/28 14:26:18;;;;;;;4.75;3.72;;;;;;;;;;4211445;34;20057;-85
2023/07/28 14:28:45;;;;;;;4.45;4.10;;;;;;;;;;4226243;34;20050;-84
2023/07/28 14:31:11;;;;;;;5.80;3.72;;;;;;;;;;4221027;34;20043;-85
2023/07/28 14:33:37;;;;;;;4.00;3.60;;;;;;;;;;4226767;33;20053;-87
2023/07/28 14:36:03;;;;;;;4.12;3.62;;;;;;;;;;4240679;33;20459;-87
2023/07/28 14:38:30;;;;;;;3.80;3.50;;;;;;;;;;4245303;33;20433;-88
2023/07/28 14:40:56;;;;;;;4.30;3.90;;;;;;;;;;4245409;33;20039;-88
2023/07/28 14:43:22;;;;;;;7.22;3.90;;;;;;;;;;4239969;33;20080;-88
2023/07/28 14:45:49;;;;;;;4.18;3.45;;;;;;;;;;4240240;33;20437;-86
2023/07/28 14:48:16;;;;;;;4.37;4.07;;;;;;;;;;4225115;33;20056;-87
2023/07/28 14:50:42;;;;;;;3.67;3.40;;;;;;;;;;4223335;33;20060;-87
2023/07/28 14:53:28;;;;;;;3.67;2.78;;;;;;;;;;4224202;33;20514;-86
2023/07/28 14:55:54;;;;;;;3.35;3.03;;;;;;;;;;4235187;33;20046;-82
2023/07/28 14:58:21;;;;;;;4.35;2.58;;;;;;;;;;4235969;33;20073;-84
2023/07/28 15:00:46;;;;;;;4.68;4.05;;;;;;;;;;4238244;33;20094;-85
2023/07/28 15:03:13;;;;;;;2.47;2.35;;;;;;;;;;4237823;33;20096;-85
2023/07/28 15:05:39;;;;;;;2.28;2.17;;;;;;;;;;4242965;33;20089;-80
2023/07/28 15:08:05;;;;;;;2.33;2.10;;;;;;;;;;4236713;33;20274;-83
2023/07/28 15:10:32;;;;;;;3.03;1.95;;;;;;;;;;4236650;33;20046;-85
2023/07/28 15:12:58;;;;;;;3.85;2.17;;;;;;;;;;4222810;33;20050;-85
2023/07/28 15:15:25;;;;;;;3.35;1.58;;;;;;;;;;4235333;33;20197;-87
2023/07/28 15:17:52;;;;;;;4.32;1.30;;;;;;;;;;4238360;33;20072;-87
2023/07/28 15:20:21;;;;;;;1.87;1.70;;;;;;;;;;4249075;33;20061;-82
2023/07/28 15:22:47;;;;;;;1.85;1.62;;;;;;;;;;4250073;33;20125;-85
2023/07/28 15:25:14;;;;;;;1.95;1.58;;;;;;;;;;4248758;33;20030;-83
2023/07/28 15:27:43;;;;;;;2.40;2.22;;;;;;;;;;4252265;33;20061;-83
2023/07/28 15:30:09;;;;;;;5.55;2.08;;;;;;;;;;4250894;33;20108;-84
2023/07/28 15:32:36;;;;;;;2.40;2.25;;;;;;;;;;4251406;33;20406;-83
2023/07/28 15:35:10;;;;;;;4.78;1.95;;;;;;;;;;4250448;33;20316;-84
2023/07/28 15:37:37;;;;;;;2.12;1.92;;;;;;;;;;4236756;33;20138;-84
2023/07/28 15:40:03;;;;;;;1.45;1.35;;;;;;;;;;4236275;33;20054;-83
2023/07/28 15:42:30;;;;;;;2.65;1.75;;;;;;;;;;4237905;33;20097;-83
2023/07/28 15:44:56;;;;;;;24.00;2.33;;;;;;;;;;4235704;33;20064;-85
2023/07/28 15:47:23;;;;;;;2.83;2.15;;;;;;;;;;4250938;33;20055;-86
2023/07/28 15:49:52;;;;;;;3.42;2.00;;;;;;;;;;4251850;33;20039;-86
2023/07/28 15:52:19;;;;;;;2.12;1.90;;;;;;;;;;4260034;33;20068;-85
2023/07/28 15:54:45;;;;;;;1.50;1.42;;;;;;;;;;4263724;33;20038;-84
2023/07/28 15:57:12;;;;;;;5.70;1.87;;;;;;;;;;4258991;33;20484;-86
2023/07/28 15:59:38;;;;;;;2.90;2.37;;;;;;;;;;4258162;33;20038;-84
2023/07/28 16:02:05;;;;;;;3.22;2.12;;;;;;;;;;4241906;33;20440;-85
2023/07/28 16:04:31;;;;;;;3.37;2.42;;;;;;;;;;4215251;33;20046;-85
2023/07/28 16:06:58;;;;;;;2.20;2.03;;;;;;;;;;4209310;34;20068;-85
2023/07/28 16:09:24;;;;;;;4.18;1.85;;;;;;;;;;4215478;34;20043;-84
2023/07/28 16:11:50;;;;;;;20.25;1.87;;;;;;;;;;4210156;34;20557;-82
2023/07/28 16:14:16;;;;;;;22.25;1.70;;;;;;;;;;4194248;34;20086;-85
2023/07/28 16:16:42;;;;;;;3.53;1.45;;;;;;;;;;4194905;34;20043;-85
2023/07/28 16:19:09;;;;;;;1.12;1.12;;;;;;;;;;4191879;34;20400;-82
2023/07/28 16:21:35;;;;;;;15.32;1.50;;;;;;;;;;4194989;34;20073;-83
2023/07/28 16:24:01;;;;;;;2.87;1.35;;;;;;;;;;4195232;34;20143;-80
2023/07/28 16:26:27;;;;;;;1.30;1.08;;;;;;;;;;4195739;34;20077;-83
2023/07/28 16:28:53;;;;;;;2.58;0.93;;;;;;;;;;4194596;34;20055;-87
2023/07/28 16:31:20;;;;;;;1.30;1.20;;;;;;;;;;4193532;34;20075;-84
2023/07/28 16:33:47;;;;;;;1.65;0.93;;;;;;;;;;4194781;34;20113;-86
2023/07/28 16:36:13;;;;;;;1.40;0.90;;;;;;;;;;4121290;34;20071;-85
2023/07/28 16:38:39;;;;;;;0.98;0.98;;;;;;;;;;4144837;34;20071;-85
2023/07/28 16:41:07;;;;;;;3.28;1.23;;;;;;;;;;4152746;34;20158;-90
2023/07/28 16:43:35;;;;;;;1.20;1.17;;;;;;;;;;4143027;34;20396;-85